Pioche, Nevada Weather observations

Data are for observation ending at time listed.
 Day   Time    Ave.   Ave.  Ave.  Vector   Max.   Stn.    Total    Solar   Ave.  
  of    of     Air    Rel.  Wind   Wind    Wind   Baro.  Precip.   Rad.    Soil  
Year   Day     Temp.  Hum.  Speed  Dir.    Gust   Pres.                    Temp. 
2014   (PST)    F      %     mph   deg.    mph     mb.     in.     W/m2     F   
------------------------------------------------------------------------------
 259    6:20   66.5    37    0.3   297      1.2   823.4    0.00     159    73.8
 259    6:30   67.9    36    0.4   326      2.8   823.4    0.00     193    73.7
 259    6:40   69.0    34    0.1   330      2.4   823.4    0.00     196    73.7
 259    6:50   68.4    35    0.3   337      1.7   823.5    0.00     265    73.6
 259    7:00   69.9    33    0.1   329      1.1   823.5    0.00     301    73.6
 259    7:10   72.2    32    0.0   329      1.0   823.5    0.00     339    73.5
 259    7:20   74.2    30    0.0     0      0.0   823.5    0.00     375    73.5
 259    7:30   73.9    31    0.1   320      1.1   823.6    0.00     411    73.4
 259    7:40   75.3    29    0.5    70      4.3   823.7    0.00     448    73.3
 259    7:50   75.1    27    1.4    86      3.8   823.8    0.00     483    73.3
 259    8:00   74.9    27    1.4    70      4.7   823.8    0.00     508    73.3
 259    8:10   74.7    27    2.3    77      3.9   823.9    0.00     556    73.2
 259    8:20   75.3    27    1.4    69      4.3   823.8    0.00     566    73.2
 259    8:30   76.4    27    2.7    76      5.5   823.8    0.00     627    73.1
 259    8:40   77.3    26    2.9    92      5.8   823.8    0.00     631    73.1
 259    8:50   78.4    24    4.9   128     11.6   823.9    0.00     697    73.0
 259    9:00   78.5    21    6.3   151     11.8   823.9    0.00     652    73.0
 259    9:10   78.7    20    8.7   142     13.4   823.8    0.00     731    73.0
 259    9:20   78.9    20    8.7   141     13.6   823.9    0.00     759    73.0
 259    9:30   79.3    20    7.6   139     13.3   823.8    0.00     783    73.0
 259    9:40   79.6    21    8.4   144     13.3   823.8    0.00     798    72.9
 259    9:50   79.7    20    8.4   142     14.0   823.7    0.00     818    72.9
 259   10:00   80.0    19    7.8   143     12.9   823.7    0.00     837    72.9
 259   10:10   80.9    18    6.4   144     11.0   823.7    0.00     856    72.9
 259   10:20   81.2    18    6.0   141     11.0   823.6    0.00     868    72.9
 259   10:30   81.4    18    6.3   156     10.9   823.5    0.00     880    72.9
 259   10:40   82.2    18    5.0   146     11.9   823.5    0.00     891    72.9
 259   10:50   82.2    18    6.8   130     13.6   823.4    0.00     902    73.0
 259   11:00   82.4    18    5.3   132     13.0   823.3    0.00     912    73.0
 259   11:10   82.5    20    4.7   152     10.4   823.2    0.00     918    73.1
 259   11:20   83.1    19    5.5   132     12.3   823.1    0.00     924    73.1
 259   11:30   82.6    18    4.4   124     12.5   823.1    0.00     932    73.2
 259   11:40   83.4    17    6.2   138     19.5   823.0    0.00     932    73.2
 259   11:50   83.0    18    4.5   136     11.0   822.9    0.00     924    73.3
 259   12:00   83.2    18    8.3   120     14.9   822.8    0.00     920    73.4
 259   12:10   83.8    17    2.9   120      9.1   822.7    0.00     917    73.5
 259   12:20   84.4    17    7.5   101     13.7   822.6    0.00     912    73.6
 259   12:30   84.2    17    9.4   100     18.0   822.4    0.00     912    73.7
 259   12:40   84.6    17    8.4   104     18.9   822.3    0.00     904    73.8
 259   12:50   84.8    17    5.8   104     12.8   822.2    0.00     882    73.9
 259   13:00   84.9    17    9.4   104     18.3   822.1    0.00     873    74.0
 259   13:10   84.7    17    6.3   110     15.5   822.1    0.00     855    74.1
 259   13:20   84.9    17    8.2   110     16.7   822.0    0.00     838    74.2
 259   13:30   84.6    17    5.8   151     13.1   821.9    0.00     827    74.4
 259   13:40   85.8    17    1.5   192      8.6   821.7    0.00     804    74.5
 259   13:50   85.6    17    5.7   142     16.1   821.6    0.00     773    74.6
 259   14:00   85.8    16    0.6   104      6.1   821.5    0.00     750    74.7
 259   14:10   85.8    17    4.8   222      9.6   821.3    0.00     737    74.9
 259   14:20   84.8    17    4.9   143     12.8   821.3    0.00     593    75.0
 259   14:30   84.2    17    5.1   118      9.1   821.2    0.00     541    75.2
 259   14:40   84.9    17    2.2   105      9.9   821.1    0.00     671    75.3
 259   14:50   85.9    16    1.1    87      5.3   820.9    0.00     610    75.4
 259   15:00   85.6    16    5.0   118     14.0   820.8    0.00     555    75.6
 259   15:10   85.1    17    3.4   144     11.9   820.7    0.00     513    75.8
 259   15:20   85.2    17    6.4   107     11.2   820.6    0.00     532    75.9
 259   15:30   84.7    17    5.3    98     11.2   820.6    0.00     337    76.0
 259   15:40   84.0    18    6.6   141     11.5   820.5    0.00     264    76.2
 259   15:50   83.6    18    3.7   151      7.5   820.5    0.00     211    76.4
 259   16:00   83.2    18    4.5   135     10.3   820.4    0.00     222    76.5
 259   16:10   82.9    18    5.4   112      9.7   820.3    0.00      96    76.7
 259   16:20   83.1    18    3.2   121      9.7   820.2    0.00     188    76.8
 259   16:30   82.9    19    4.6    98      8.8   820.2    0.00      55    77.0
 259   16:40   82.8    19    5.5   116      9.0   820.3    0.00      55    77.1
 259   16:50   82.5    19    3.6   147      8.6   820.3    0.00      43    77.2
 259   17:00   82.3    19    4.7   119      8.6   820.4    0.00      36    77.3
 259   17:10   81.9    19    3.5   119      6.2   820.4    0.00      30    77.4
 259   17:20   81.3    20    5.7   124     10.6   820.4    0.00      18    77.5
 259   17:30   81.2    20    5.4   145      8.7   820.4    0.00      13    77.6
 259   17:40   80.6    21    3.7   145      7.2   820.5    0.00      10    77.6
 259   17:50   80.1    21    4.5   143      8.8   820.5    0.00       4    77.7
 259   18:00   79.3    22    2.9   172      5.6   820.6    0.00       1    77.8
 259   18:10   78.4    23    3.1   182      6.6   820.6    0.00       0    77.8
 259   18:20   78.4    22    4.5   176      7.7   820.7    0.00       0    77.8
 259   18:30   78.5    22    4.8   184      7.5   820.7    0.00       0    77.9
 259   18:40   77.7    23    3.5   188      5.4   820.8    0.00       0    77.9
 259   18:50   77.2    23    3.9   189      7.0   820.8    0.00       0    78.0
 259   19:00   76.9    24    3.8   190      6.4   820.9    0.00       0    78.0
 259   19:10   77.3    23    4.7   183      7.2   820.9    0.00       0    78.0
 259   19:20   76.7    24    4.0   195      6.2   820.9    0.00       0    78.0
 259   19:30   75.3    25    3.9   194      5.9   821.0    0.00       0    78.0
 259   19:40   76.1    24    4.2   185      7.2   821.0    0.00       0    78.0
 259   19:50   76.9    24    5.7   167     10.7   821.0    0.00       0    78.0
 259   20:00   77.6    23    5.9   159      9.2   821.0    0.00       0    77.9
 259   20:10   76.2    24    6.6   146      8.5   821.0    0.00       0    77.9
 259   20:20   75.1    25    6.0   146      7.5   821.0    0.00       0    77.9
 259   20:30   75.8    24    5.7   148      8.3   821.0    0.00       0    77.9
 259   20:40   76.7    23    4.7   158      7.6   820.9    0.00       0    77.8
 259   20:50   76.5    24    5.0   150      7.5   820.9    0.00       0    77.8
 259   21:00   74.8    25    5.2   142      6.5   820.9    0.00       0    77.8
 259   21:10   73.7    26    3.1   127      6.4   821.0    0.00       0    77.7
 259   21:20   71.1    28    2.4   285      4.5   820.9    0.00       0    77.7
 259   21:30   70.0    30    2.2   295      3.1   820.8    0.00       0    77.6
 259   21:40   68.6    32    1.3   270      2.8   820.8    0.00       0    77.6
 259   21:50   68.1    32    0.6   261      1.7   820.8    0.00       0    77.6
 259   22:00   67.6    33    0.7   242      2.0   820.8    0.00       0    77.6
 259   22:10   67.4    33    0.5   242      2.9   820.8    0.00       0    77.5
 259   22:20   66.6    38    1.4   185      3.4   820.8    0.00       0    77.5
 259   22:30   68.6    32    5.7   133     11.2   821.0    0.00       0    77.4
 259   22:40   72.4    27    8.8   145     15.5   820.8    0.00       0    77.3
 259   22:50   71.8    28   10.6   142     15.5   820.9    0.00       0    77.3
 259   23:00   71.2    28    8.4   147     15.9   820.8    0.00       0    77.2
 259   23:10   70.7    31    3.1   154     10.4   820.9    0.00       0    77.2
 259   23:20   69.8    34    2.0   202      5.8   820.9    0.00       0    77.1
 259   23:30   69.3    33    2.9    86      5.3   820.9    0.00       0    77.1
 259   23:40   69.0    36    1.8    85      7.8   820.8    0.00       0    77.0
 259   23:50   65.8    35    2.1   123      5.2   820.9    0.00       0    77.0
 260    0:00   66.8    42    4.3   121      7.8   820.9    0.00       0    76.9
 260    0:10   67.5    49    2.5   104      6.9   820.9    0.00       0    76.9
 260    0:20   66.8    53    3.1   118      9.1   821.0    0.00       0    76.8
 260    0:30   66.0    57    3.7   139      6.9   821.0    0.00       0    76.7
 260    0:40   65.6    59    2.7   125      6.3   821.0    0.00       0    76.7
 260    0:50   65.3    60    2.4   124      6.4   821.0    0.00       0    76.6
 260    1:00   65.7    61    7.4   130     15.6   820.9    0.00       0    76.6
 260    1:10   66.0    60   11.1   134     16.4   820.7    0.00       0    76.5
 260    1:20   66.0    60   11.4   143     18.8   820.6    0.00       0    76.5
 260    1:30   65.9    60    9.5   138     16.2   820.6    0.00       0    76.4
 260    1:40   65.9    60    5.4   141     12.9   820.7    0.00       0    76.3
 260    1:50   64.3    60    2.6   308      6.7   820.8    0.00       0    76.3
 260    2:00   62.8    63    0.9   320      3.0   820.7    0.00       0    76.2
 260    2:10   62.0    65    0.5   107      1.7   820.7    0.00       0    76.2
 260    2:20   61.4    68    1.3   159      3.1   820.7    0.00       0    76.1
 260    2:30   60.8    68    0.0     0      0.0   820.6    0.00       0    76.0
 260    2:40   60.6    69    0.6   181      2.2   820.6    0.00       0    76.0
 260    2:50   60.1    70    0.3   331      1.6   820.7    0.00       0    75.9
 260    3:00   59.3    72    1.0   271      3.1   820.6    0.00       0    75.9
 260    3:10   59.3    72    0.3   272      1.8   820.6    0.00       0    75.8
 260    3:20   59.5    72    1.0   158      2.9   820.6    0.00       0    75.8
 260    3:30   59.6    72    0.7   204      1.9   820.6    0.00       0    75.7
 260    3:40   58.9    72    0.7   188      2.1   820.6    0.00       0    75.6
 260    3:50   58.9    73    0.3   229      1.7   820.6    0.00       0    75.6
 260    4:00   58.1    74    1.3   237      2.7   820.6    0.00       0    75.5
 260    4:10   58.4    72    0.4   260      2.0   820.6    0.00       0    75.4
 260    4:20   58.5    73    0.0   239      0.1   820.7    0.00       0    75.4
 260    4:30   58.2    73    0.5   165      2.2   820.7    0.00       0    75.3
 260    4:40   58.5    72    1.1   157      2.0   820.7    0.00       0    75.3
 260    4:50   58.3    73    1.1   166      2.3   820.6    0.00       0    75.2
 260    5:00   57.9    73    0.7   188      2.1   820.7    0.00       0    75.1
 260    5:10   57.7    74    0.4   188      1.6   820.7    0.00       0    75.1
 260    5:20   57.5    74    0.7   198      1.4   820.7    0.00       1    75.0
 260    5:30   58.4    72    2.5   152      4.1   820.8    0.00       4    74.9
 260    5:40   59.2    71    2.0   153      4.5   820.8    0.00      16    74.9
 260    5:50   59.7    69    3.3   153      4.4   821.0    0.00      41    74.8
 260    6:00   61.6    66    1.3   167      2.9   821.0    0.00      75    74.8
 260    6:10   62.6    64    2.7   150      4.2   821.0    0.00     114    74.7

Return to Pioche, Nevada graphs page.


Western Regional Climate Center,wrcc@dri.edu